Copper Center, AK (99573)

9:40 AM AKDT on August 22, 2017 (GMT -0800)
Klutina River | | Change Station

Elev 1100 ft 61.95 °N, 145.32 °W | Updated 8 seconds ago

Overcast
Overcast
52.0 °F
Feels Like 52.0 °F
N
0.0
Wind Variable Wind from NW
Gusts 2.0 mph

Today
High -- | Low -- °F
--% Chance of Precip.
Yesterday
High -- | Low -- °F
Precip. -- in
Pressure 29.76 in
Visibility 10.0 miles
Clouds Overcast 600 ft
Dew Point 51 °F
Humidity 97%
Rainfall 0.00 in
Snow Depth Not available.
6:05 AM 9:20 PM
New Moon, 1% visible
SPECI PAGK 221728Z AUTO 00000KT 10SM OVC006 09/09 A2976 RMK AO2 CIG 004V009 T00940089 TSNO
Pressure 29.76 in
Visibility 10.0 miles
Clouds Overcast 600 ft
Dew Point 51 °F
Humidity 97%
Rainfall 0.00 in
Snow Depth Not available.
6:05 AM 9:20 PM
New Moon, 1% visible
SPECI PAGK 221728Z AUTO 00000KT 10SM OVC006 09/09 A2976 RMK AO2 CIG 004V009 T00940089 TSNO

Get Severe Weather Alerts

Thanks for signing up!

Be on the lookout for a verification email in your inbox.

You'll start receiving the daily forecast at 6 AM.

×

10-Day Weather Forecast

Almanac

Astronomy

Aug. 22, 2017 Rise Set
Actual Time
Civil Twilight
Nautical Twilight
Astronomical Twilight
Moon
Length of Visible Light
Length of Day
Tomorrow will be .
, % of the Moon is Illuminated

Today's Extremes

State Highs State Lows

Community

WunderPhotos

Category 6

Welcome to Category 6. This is the collective home for Weather Underground's featured writeups by Dr. Jeff Masters (right), Bob Henson (left), Chris Burt, and other regular contributors.

Nearby

Air Quality

  Air Quality AQ Index Pollutant
Not available.

Snow Depth

Station Depth Elevation

Earthquake Activity

City Distance Mag. Time & Date
Minimum magnitude displayed is 2.5.

Coastal Water Temperatures

Place Temperature

Stations

Nearby Weather Stations

Station Location Temp. Windchill Dew Point Humidity Wind Precip. Elev Updated Type
                   

Watches & Warnings

There are currently no watches in effect.